• Join FlightAware (Why Join?)
  • Login
  • US Flag 
12:16PM EDT


 

Airport Tracker/Info


-or-


 

Live Flight TrackerFlight Track Log ✈ KAP46 ✈ 21-Jun-2013 ✈ KALB - KMSS

Flight Track Log - Related Links

Times and Time Zones

All times are in EDT time to prevent confusion due to time zone crossing. See the KAP46 flight status page for this flight to view local times or setup timezone preferences in your user account.

Time Position Orientation Groundspeed Altitude Reporting Facility
EDT Latitude Longitude Course Direction KTS MPH feet Rate Location/Type
02:40PM 42.7881 -73.8067 359° North 118 136 1,400  Level Boston Center
02:41PM 42.8192 -73.8214 341° North 125 144 1,900 540 Climbing Boston Center
02:42PM 42.8525 -73.8364 342° North 125 144 2,500 540 Climbing Boston Center
02:43PM 42.8836 -73.8511 341° North 125 144 3,000 540 Climbing Boston Center
02:46PM 42.9869 -73.9019 340° North 131 151 4,900 540 Climbing Boston Center
02:47PM 43.0244 -73.9142 347° North 133 153 5,400 480 Climbing Boston Center
02:48PM 43.0597 -73.9319 340° North 136 157 5,900 480 Climbing Boston Center
02:48PM 43.0761 -73.9436 333° Northwest 138 159 6,200 480 Climbing Boston Center
02:49PM 43.1136 -73.9561 346° North 140 161 6,700 480 Climbing Boston Center
02:50PM 43.1486 -73.9711 343° North 140 161 7,200 480 Climbing Boston Center
02:51PM 43.1736 -73.9861 336° Northwest 140 161 7,700 600 Climbing Boston Center
02:52PM 43.2169 -74.0042 343° North 140 161 8,500 540 Climbing Boston Center
02:53PM 43.2583 -74.0253 340° North 135 155 8,800 360 Climbing Boston Center
02:54PM 43.2936 -74.0433 340° North 135 155 9,300 540 Climbing Boston Center
02:55PM 43.3350 -74.0642 342° North 140 161 9,900 540 Climbing Boston Center
02:56PM 43.3681 -74.0794 341° North 140 161 10,400 300 Climbing Boston Center
02:57PM 43.4117 -74.0978 343° North 140 161 10,500 60 Climbing Boston Center
02:58PM 43.4406 -74.1128 339° North 148 170 10,600  Climbing Boston Center
02:59PM 43.4903 -74.1372 340° North 148 170 10,600  Level Boston Center
03:00PM 43.5317 -74.1583 340° North 148 170 10,600  Level Boston Center
03:01PM 43.5731 -74.1767 342° North 148 170 10,600 60 Level Boston Center
03:02PM 43.6122 -74.1981 338° Northwest 148 170 10,800 240 Climbing Boston Center
03:03PM 43.6517 -74.2133 344° North 148 170 11,100 300 Climbing Boston Center
03:04PM 43.6869 -74.2317 339° North 148 170 11,400 240 Climbing Boston Center
03:05PM 43.7261 -74.2500 341° North 148 170 11,600 60 Climbing Boston Center
03:06PM 43.7611 -74.2683 339° North 148 170 11,600  Level Boston Center
03:07PM 43.8028 -74.2869 342° North 148 170 11,600 -120 Level Boston Center
03:08PM 43.8542 -74.3144 339° North 148 170 11,400 -300 Descending Boston Center
03:09PM 43.8956 -74.3331 342° North 153 176 11,000 -420 Descending Boston Center
03:10PM 43.9453 -74.3578 340° North 163 188 10,600 -420 Descending Boston Center
03:11PM 43.9908 -74.3764 344° North 168 193 10,200 -420 Descending Boston Center
03:12PM 44.0403 -74.4011 340° North 168 193 9,800 -420 Descending Boston Center
03:13PM 44.0858 -74.4228 341° North 168 193 9,400 -420 Descending Boston Center
03:14PM 44.1311 -74.4503 336° Northwest 168 193 9,000 -480 Descending Boston Center
03:15PM 44.1744 -74.4894 327° Northwest 174 200 8,500 -540 Descending Boston Center
03:16PM 44.2217 -74.5258 331° Northwest 182 209 8,000 -480 Descending Boston Center
03:17PM 44.2733 -74.5422 347° North 182 209 7,600 -420 Descending Boston Center
03:18PM 44.3231 -74.5556 349° North 182 209 7,200 -480 Descending Boston Center
03:19PM 44.3731 -74.5661 351° North 187 215 6,700 -540 Descending Boston Center
03:20PM 44.4225 -74.5911 340° North 182 209 6,200 -480 Descending Boston Center
03:21PM 44.4719 -74.6161 340° North 187 215 5,800 -480 Descending Boston Center
03:22PM 44.5217 -74.6383 342° North 187 215 5,300 -480 Descending Boston Center
03:23PM 44.5711 -74.6636 340° North 187 215 4,900 2,580 Descending Boston Center
03:24PM 44.6186 -74.6858 342° North 187 215 10,500 5,580 Climbing Boston Center